sensor_id;sensor_type;location;lat;lon;timestamp;P1;durP1;ratioP1;P2;durP2;ratioP2
47329;SDS011;33060;50.178;7.570;2022-11-13T00:01:22;10.13;;;8.67;;
47329;SDS011;33060;50.178;7.570;2022-11-13T00:04:09;9.50;;;8.50;;
47329;SDS011;33060;50.178;7.570;2022-11-13T00:06:54;11.13;;;8.93;;
47329;SDS011;33060;50.178;7.570;2022-11-13T00:09:43;13.00;;;8.53;;
47329;SDS011;33060;50.178;7.570;2022-11-13T00:12:28;9.27;;;8.13;;
47329;SDS011;33060;50.178;7.570;2022-11-13T00:15:14;9.23;;;8.23;;
47329;SDS011;33060;50.178;7.570;2022-11-13T00:17:59;9.53;;;7.90;;
47329;SDS011;33060;50.178;7.570;2022-11-13T00:20:46;10.40;;;8.00;;
47329;SDS011;33060;50.178;7.570;2022-11-13T00:23:32;10.63;;;7.73;;
47329;SDS011;33060;50.178;7.570;2022-11-13T00:26:25;10.53;;;8.37;;
47329;SDS011;33060;50.178;7.570;2022-11-13T00:29:13;9.00;;;7.43;;
47329;SDS011;33060;50.178;7.570;2022-11-13T00:31:58;9.20;;;7.23;;
47329;SDS011;33060;50.178;7.570;2022-11-13T00:34:43;8.87;;;7.30;;
47329;SDS011;33060;50.178;7.570;2022-11-13T00:37:31;8.63;;;7.00;;
47329;SDS011;33060;50.178;7.570;2022-11-13T00:40:17;9.53;;;7.13;;
47329;SDS011;33060;50.178;7.570;2022-11-13T00:43:02;7.70;;;6.90;;
47329;SDS011;33060;50.178;7.570;2022-11-13T00:45:47;7.87;;;7.07;;
47329;SDS011;33060;50.178;7.570;2022-11-13T00:48:33;7.60;;;6.50;;
47329;SDS011;33060;50.178;7.570;2022-11-13T00:51:19;5.67;;;5.10;;
47329;SDS011;33060;50.178;7.570;2022-11-13T00:54:04;6.70;;;4.77;;
47329;SDS011;33060;50.178;7.570;2022-11-13T00:56:49;4.93;;;4.43;;
47329;SDS011;33060;50.178;7.570;2022-11-13T00:59:34;4.93;;;4.43;;
47329;SDS011;33060;50.178;7.570;2022-11-13T01:02:20;4.20;;;3.50;;
47329;SDS011;33060;50.178;7.570;2022-11-13T01:05:05;4.60;;;3.80;;
47329;SDS011;33060;50.178;7.570;2022-11-13T01:07:50;5.27;;;3.83;;
47329;SDS011;33060;50.178;7.570;2022-11-13T01:10:38;4.30;;;3.77;;
47329;SDS011;33060;50.178;7.570;2022-11-13T01:13:38;5.03;;;3.47;;
47329;SDS011;33060;50.178;7.570;2022-11-13T01:16:25;3.93;;;3.50;;
47329;SDS011;33060;50.178;7.570;2022-11-13T01:19:12;4.43;;;3.70;;
47329;SDS011;33060;50.178;7.570;2022-11-13T01:21:57;4.33;;;3.50;;
47329;SDS011;33060;50.178;7.570;2022-11-13T01:24:42;4.50;;;3.50;;
47329;SDS011;33060;50.178;7.570;2022-11-13T01:27:28;3.93;;;3.33;;
47329;SDS011;33060;50.178;7.570;2022-11-13T01:30:13;5.13;;;3.50;;
47329;SDS011;33060;50.178;7.570;2022-11-13T01:32:58;4.50;;;3.50;;
47329;SDS011;33060;50.178;7.570;2022-11-13T01:35:43;3.90;;;3.43;;
47329;SDS011;33060;50.178;7.570;2022-11-13T01:38:29;3.43;;;2.90;;
47329;SDS011;33060;50.178;7.570;2022-11-13T01:44:13;3.73;;;3.10;;
47329;SDS011;33060;50.178;7.570;2022-11-13T01:47:01;3.33;;;2.70;;
47329;SDS011;33060;50.178;7.570;2022-11-13T01:49:48;3.40;;;2.90;;
47329;SDS011;33060;50.178;7.570;2022-11-13T01:52:37;3.27;;;2.83;;
47329;SDS011;33060;50.178;7.570;2022-11-13T01:55:25;4.27;;;3.00;;
47329;SDS011;33060;50.178;7.570;2022-11-13T01:58:10;4.03;;;3.50;;
47329;SDS011;33060;50.178;7.570;2022-11-13T02:00:56;3.93;;;3.00;;
47329;SDS011;33060;50.178;7.570;2022-11-13T02:03:42;4.17;;;2.97;;
47329;SDS011;33060;50.178;7.570;2022-11-13T02:06:28;3.90;;;3.00;;
47329;SDS011;33060;50.178;7.570;2022-11-13T02:09:19;3.90;;;3.20;;
47329;SDS011;33060;50.178;7.570;2022-11-13T02:12:12;3.97;;;3.03;;
47329;SDS011;33060;50.178;7.570;2022-11-13T02:15:02;3.53;;;3.20;;
47329;SDS011;33060;50.178;7.570;2022-11-13T02:17:51;3.43;;;3.03;;
47329;SDS011;33060;50.178;7.570;2022-11-13T02:21:05;4.20;;;2.87;;
47329;SDS011;33060;50.178;7.570;2022-11-13T02:26:35;4.27;;;3.10;;
47329;SDS011;33060;50.178;7.570;2022-11-13T02:29:21;4.27;;;3.00;;
47329;SDS011;33060;50.178;7.570;2022-11-13T02:32:06;4.40;;;2.77;;
47329;SDS011;33060;50.178;7.570;2022-11-13T02:34:52;4.20;;;3.50;;
47329;SDS011;33060;50.178;7.570;2022-11-13T02:37:37;4.17;;;3.10;;
47329;SDS011;33060;50.178;7.570;2022-11-13T02:40:23;5.80;;;3.57;;
47329;SDS011;33060;50.178;7.570;2022-11-13T02:43:08;6.33;;;3.40;;
47329;SDS011;33060;50.178;7.570;2022-11-13T02:45:55;4.17;;;3.20;;
47329;SDS011;33060;50.178;7.570;2022-11-13T02:48:40;3.80;;;3.40;;
47329;SDS011;33060;50.178;7.570;2022-11-13T02:51:25;4.20;;;3.80;;
47329;SDS011;33060;50.178;7.570;2022-11-13T02:54:10;4.93;;;4.20;;
47329;SDS011;33060;50.178;7.570;2022-11-13T02:57:01;5.60;;;4.10;;
47329;SDS011;33060;50.178;7.570;2022-11-13T02:59:46;5.20;;;3.70;;
47329;SDS011;33060;50.178;7.570;2022-11-13T03:02:31;4.53;;;3.70;;
47329;SDS011;33060;50.178;7.570;2022-11-13T03:05:17;4.93;;;4.27;;
47329;SDS011;33060;50.178;7.570;2022-11-13T03:08:02;5.37;;;4.83;;
47329;SDS011;33060;50.178;7.570;2022-11-13T03:10:47;5.10;;;4.10;;
47329;SDS011;33060;50.178;7.570;2022-11-13T03:13:33;5.13;;;4.10;;
47329;SDS011;33060;50.178;7.570;2022-11-13T03:16:18;5.50;;;4.50;;
47329;SDS011;33060;50.178;7.570;2022-11-13T03:19:03;5.07;;;4.40;;
47329;SDS011;33060;50.178;7.570;2022-11-13T03:21:48;5.63;;;4.30;;
47329;SDS011;33060;50.178;7.570;2022-11-13T03:24:34;5.55;;;4.70;;
47329;SDS011;33060;50.178;7.570;2022-11-13T03:27:19;5.83;;;4.20;;
47329;SDS011;33060;50.178;7.570;2022-11-13T03:30:05;4.93;;;4.27;;
47329;SDS011;33060;50.178;7.570;2022-11-13T03:32:54;5.00;;;4.33;;
47329;SDS011;33060;50.178;7.570;2022-11-13T03:35:41;4.50;;;4.03;;
47329;SDS011;33060;50.178;7.570;2022-11-13T03:38:30;5.67;;;4.27;;
47329;SDS011;33060;50.178;7.570;2022-11-13T03:41:16;5.00;;;3.90;;
47329;SDS011;33060;50.178;7.570;2022-11-13T03:44:02;5.00;;;4.10;;
47329;SDS011;33060;50.178;7.570;2022-11-13T03:46:47;4.40;;;3.83;;
47329;SDS011;33060;50.178;7.570;2022-11-13T03:49:32;3.77;;;3.37;;
47329;SDS011;33060;50.178;7.570;2022-11-13T03:52:17;3.73;;;3.27;;
47329;SDS011;33060;50.178;7.570;2022-11-13T03:55:02;4.37;;;3.60;;
47329;SDS011;33060;50.178;7.570;2022-11-13T03:57:48;5.60;;;3.70;;
47329;SDS011;33060;50.178;7.570;2022-11-13T04:00:33;3.93;;;3.40;;
47329;SDS011;33060;50.178;7.570;2022-11-13T04:03:18;5.00;;;3.73;;
47329;SDS011;33060;50.178;7.570;2022-11-13T04:06:04;4.40;;;3.30;;
47329;SDS011;33060;50.178;7.570;2022-11-13T04:08:49;3.53;;;3.23;;
47329;SDS011;33060;50.178;7.570;2022-11-13T04:11:34;4.37;;;3.33;;
47329;SDS011;33060;50.178;7.570;2022-11-13T04:14:19;4.00;;;3.10;;
47329;SDS011;33060;50.178;7.570;2022-11-13T04:17:05;3.50;;;3.20;;
47329;SDS011;33060;50.178;7.570;2022-11-13T04:19:50;3.40;;;3.10;;
47329;SDS011;33060;50.178;7.570;2022-11-13T04:22:35;4.33;;;3.57;;
47329;SDS011;33060;50.178;7.570;2022-11-13T04:25:21;4.87;;;3.40;;
47329;SDS011;33060;50.178;7.570;2022-11-13T04:28:07;4.97;;;3.40;;
47329;SDS011;33060;50.178;7.570;2022-11-13T04:30:53;4.37;;;3.73;;
47329;SDS011;33060;50.178;7.570;2022-11-13T04:33:38;4.47;;;3.70;;
47329;SDS011;33060;50.178;7.570;2022-11-13T04:36:24;4.53;;;3.60;;
47329;SDS011;33060;50.178;7.570;2022-11-13T04:39:09;4.00;;;3.13;;
47329;SDS011;33060;50.178;7.570;2022-11-13T04:41:54;2.77;;;2.47;;
47329;SDS011;33060;50.178;7.570;2022-11-13T04:44:58;3.37;;;2.50;;
47329;SDS011;33060;50.178;7.570;2022-11-13T04:47:43;2.63;;;2.27;;
47329;SDS011;33060;50.178;7.570;2022-11-13T04:50:28;3.83;;;2.37;;
47329;SDS011;33060;50.178;7.570;2022-11-13T04:53:14;2.50;;;1.97;;
47329;SDS011;33060;50.178;7.570;2022-11-13T04:55:59;2.47;;;2.20;;
47329;SDS011;33060;50.178;7.570;2022-11-13T04:58:45;3.20;;;2.40;;
47329;SDS011;33060;50.178;7.570;2022-11-13T05:01:30;2.17;;;1.90;;
47329;SDS011;33060;50.178;7.570;2022-11-13T05:04:15;1.90;;;1.70;;
47329;SDS011;33060;50.178;7.570;2022-11-13T05:07:01;2.53;;;1.90;;
47329;SDS011;33060;50.178;7.570;2022-11-13T05:09:46;2.43;;;1.60;;
47329;SDS011;33060;50.178;7.570;2022-11-13T05:12:31;2.60;;;2.00;;
47329;SDS011;33060;50.178;7.570;2022-11-13T05:15:16;3.30;;;1.97;;
47329;SDS011;33060;50.178;7.570;2022-11-13T05:18:01;2.03;;;1.67;;
47329;SDS011;33060;50.178;7.570;2022-11-13T05:20:47;2.10;;;1.77;;
47329;SDS011;33060;50.178;7.570;2022-11-13T05:23:32;2.30;;;1.80;;
47329;SDS011;33060;50.178;7.570;2022-11-13T05:26:17;3.07;;;2.00;;
47329;SDS011;33060;50.178;7.570;2022-11-13T05:29:02;2.27;;;1.93;;
47329;SDS011;33060;50.178;7.570;2022-11-13T05:31:48;2.20;;;1.60;;
47329;SDS011;33060;50.178;7.570;2022-11-13T05:34:33;2.63;;;2.03;;
47329;SDS011;33060;50.178;7.570;2022-11-13T05:37:18;4.00;;;2.20;;
47329;SDS011;33060;50.178;7.570;2022-11-13T05:40:04;2.30;;;1.80;;
47329;SDS011;33060;50.178;7.570;2022-11-13T05:42:51;2.57;;;1.93;;
47329;SDS011;33060;50.178;7.570;2022-11-13T05:45:37;2.47;;;2.00;;
47329;SDS011;33060;50.178;7.570;2022-11-13T05:48:22;2.77;;;1.77;;
47329;SDS011;33060;50.178;7.570;2022-11-13T05:53:58;2.17;;;1.83;;
47329;SDS011;33060;50.178;7.570;2022-11-13T05:56:43;2.13;;;1.60;;
47329;SDS011;33060;50.178;7.570;2022-11-13T05:59:29;2.37;;;1.70;;
47329;SDS011;33060;50.178;7.570;2022-11-13T06:02:14;3.20;;;1.70;;
47329;SDS011;33060;50.178;7.570;2022-11-13T06:05:00;3.00;;;1.80;;
47329;SDS011;33060;50.178;7.570;2022-11-13T06:07:47;2.67;;;1.80;;
47329;SDS011;33060;50.178;7.570;2022-11-13T06:10:32;2.37;;;1.80;;
47329;SDS011;33060;50.178;7.570;2022-11-13T06:13:18;3.20;;;1.70;;
47329;SDS011;33060;50.178;7.570;2022-11-13T06:16:07;2.50;;;1.90;;
47329;SDS011;33060;50.178;7.570;2022-11-13T06:18:58;2.20;;;1.70;;
47329;SDS011;33060;50.178;7.570;2022-11-13T06:21:45;2.13;;;1.80;;
47329;SDS011;33060;50.178;7.570;2022-11-13T06:24:31;2.13;;;1.60;;
47329;SDS011;33060;50.178;7.570;2022-11-13T06:27:16;2.30;;;1.80;;
47329;SDS011;33060;50.178;7.570;2022-11-13T06:30:01;1.87;;;1.50;;
47329;SDS011;33060;50.178;7.570;2022-11-13T06:32:51;1.90;;;1.50;;
47329;SDS011;33060;50.178;7.570;2022-11-13T06:35:37;2.47;;;1.60;;
47329;SDS011;33060;50.178;7.570;2022-11-13T06:38:22;2.07;;;1.77;;
47329;SDS011;33060;50.178;7.570;2022-11-13T06:41:08;1.90;;;1.60;;
47329;SDS011;33060;50.178;7.570;2022-11-13T06:43:56;2.50;;;1.80;;
47329;SDS011;33060;50.178;7.570;2022-11-13T06:46:47;2.33;;;1.80;;
47329;SDS011;33060;50.178;7.570;2022-11-13T06:49:31;2.07;;;1.67;;
47329;SDS011;33060;50.178;7.570;2022-11-13T06:52:17;2.50;;;1.47;;
47329;SDS011;33060;50.178;7.570;2022-11-13T06:55:02;1.83;;;1.60;;
47329;SDS011;33060;50.178;7.570;2022-11-13T06:57:47;1.63;;;1.40;;
47329;SDS011;33060;50.178;7.570;2022-11-13T07:00:32;2.57;;;1.63;;
47329;SDS011;33060;50.178;7.570;2022-11-13T07:03:24;1.33;;;1.20;;
47329;SDS011;33060;50.178;7.570;2022-11-13T07:06:11;2.20;;;1.50;;
47329;SDS011;33060;50.178;7.570;2022-11-13T07:08:58;1.83;;;1.33;;
47329;SDS011;33060;50.178;7.570;2022-11-13T07:11:43;2.13;;;1.50;;
47329;SDS011;33060;50.178;7.570;2022-11-13T07:14:28;1.87;;;1.47;;
47329;SDS011;33060;50.178;7.570;2022-11-13T07:17:14;2.37;;;1.60;;
47329;SDS011;33060;50.178;7.570;2022-11-13T07:19:59;2.47;;;1.50;;
47329;SDS011;33060;50.178;7.570;2022-11-13T07:22:44;1.57;;;1.30;;
47329;SDS011;33060;50.178;7.570;2022-11-13T07:25:29;2.10;;;1.70;;
47329;SDS011;33060;50.178;7.570;2022-11-13T07:28:15;1.87;;;1.37;;
47329;SDS011;33060;50.178;7.570;2022-11-13T07:31:00;2.00;;;1.47;;
47329;SDS011;33060;50.178;7.570;2022-11-13T07:33:47;1.97;;;1.23;;
47329;SDS011;33060;50.178;7.570;2022-11-13T07:36:33;1.70;;;1.30;;
47329;SDS011;33060;50.178;7.570;2022-11-13T07:39:18;1.77;;;1.23;;
47329;SDS011;33060;50.178;7.570;2022-11-13T07:42:04;1.77;;;1.30;;
47329;SDS011;33060;50.178;7.570;2022-11-13T07:44:50;2.10;;;1.40;;
47329;SDS011;33060;50.178;7.570;2022-11-13T07:47:39;2.73;;;1.70;;
47329;SDS011;33060;50.178;7.570;2022-11-13T07:50:26;7.30;;;4.68;;
47329;SDS011;33060;50.178;7.570;2022-11-13T07:53:12;8.97;;;5.03;;
47329;SDS011;33060;50.178;7.570;2022-11-13T07:56:01;3.25;;;2.45;;
47329;SDS011;33060;50.178;7.570;2022-11-13T07:58:47;1.90;;;1.53;;
47329;SDS011;33060;50.178;7.570;2022-11-13T08:01:32;2.08;;;1.70;;
47329;SDS011;33060;50.178;7.570;2022-11-13T08:04:17;1.92;;;1.40;;
47329;SDS011;33060;50.178;7.570;2022-11-13T08:07:03;2.40;;;1.50;;
47329;SDS011;33060;50.178;7.570;2022-11-13T08:09:48;1.88;;;1.40;;
47329;SDS011;33060;50.178;7.570;2022-11-13T08:12:33;1.77;;;1.48;;
47329;SDS011;33060;50.178;7.570;2022-11-13T08:15:19;2.15;;;1.60;;
47329;SDS011;33060;50.178;7.570;2022-11-13T08:18:04;2.28;;;1.60;;
47329;SDS011;33060;50.178;7.570;2022-11-13T08:20:50;1.83;;;1.35;;
47329;SDS011;33060;50.178;7.570;2022-11-13T08:23:35;2.15;;;1.58;;
47329;SDS011;33060;50.178;7.570;2022-11-13T08:26:20;2.00;;;1.60;;
47329;SDS011;33060;50.178;7.570;2022-11-13T08:29:05;1.88;;;1.52;;
47329;SDS011;33060;50.178;7.570;2022-11-13T08:31:51;2.05;;;1.50;;
47329;SDS011;33060;50.178;7.570;2022-11-13T08:34:36;2.17;;;1.38;;
47329;SDS011;33060;50.178;7.570;2022-11-13T08:37:21;1.75;;;1.40;;
47329;SDS011;33060;50.178;7.570;2022-11-13T08:40:06;2.40;;;1.20;;
47329;SDS011;33060;50.178;7.570;2022-11-13T08:42:52;2.08;;;1.30;;
47329;SDS011;33060;50.178;7.570;2022-11-13T08:45:45;2.38;;;1.60;;
47329;SDS011;33060;50.178;7.570;2022-11-13T08:48:31;1.58;;;1.15;;
47329;SDS011;33060;50.178;7.570;2022-11-13T08:51:16;1.95;;;1.30;;
47329;SDS011;33060;50.178;7.570;2022-11-13T08:54:02;2.10;;;1.35;;
47329;SDS011;33060;50.178;7.570;2022-11-13T08:56:47;2.42;;;1.40;;
47329;SDS011;33060;50.178;7.570;2022-11-13T08:59:39;1.83;;;1.40;;
47329;SDS011;33060;50.178;7.570;2022-11-13T09:02:24;1.60;;;1.27;;
47329;SDS011;33060;50.178;7.570;2022-11-13T09:05:11;1.85;;;1.40;;
47329;SDS011;33060;50.178;7.570;2022-11-13T09:07:56;1.65;;;1.27;;
47329;SDS011;33060;50.178;7.570;2022-11-13T09:10:43;3.17;;;1.60;;
47329;SDS011;33060;50.178;7.570;2022-11-13T09:13:28;1.70;;;1.40;;
47329;SDS011;33060;50.178;7.570;2022-11-13T09:16:14;2.03;;;1.30;;
47329;SDS011;33060;50.178;7.570;2022-11-13T09:18:59;2.03;;;1.40;;
47329;SDS011;33060;50.178;7.570;2022-11-13T09:21:45;2.75;;;1.40;;
47329;SDS011;33060;50.178;7.570;2022-11-13T09:24:31;2.72;;;1.40;;
47329;SDS011;33060;50.178;7.570;2022-11-13T09:27:16;1.50;;;1.25;;
47329;SDS011;33060;50.178;7.570;2022-11-13T09:30:02;1.95;;;1.45;;
47329;SDS011;33060;50.178;7.570;2022-11-13T09:32:47;1.33;;;1.17;;
47329;SDS011;33060;50.178;7.570;2022-11-13T09:35:37;2.05;;;1.40;;
47329;SDS011;33060;50.178;7.570;2022-11-13T09:38:22;2.03;;;1.40;;
47329;SDS011;33060;50.178;7.570;2022-11-13T09:41:21;2.30;;;1.27;;
47329;SDS011;33060;50.178;7.570;2022-11-13T09:44:21;1.65;;;1.25;;
47329;SDS011;33060;50.178;7.570;2022-11-13T09:47:29;2.30;;;1.55;;
47329;SDS011;33060;50.178;7.570;2022-11-13T09:50:26;2.67;;;1.60;;
47329;SDS011;33060;50.178;7.570;2022-11-13T09:53:14;2.45;;;1.70;;
47329;SDS011;33060;50.178;7.570;2022-11-13T09:56:07;2.30;;;1.70;;
47329;SDS011;33060;50.178;7.570;2022-11-13T09:58:59;2.10;;;1.50;;
47329;SDS011;33060;50.178;7.570;2022-11-13T10:05:12;4.05;;;1.63;;
47329;SDS011;33060;50.178;7.570;2022-11-13T10:08:18;3.55;;;1.30;;
47329;SDS011;33060;50.178;7.570;2022-11-13T10:14:25;1.83;;;1.45;;
47329;SDS011;33060;50.178;7.570;2022-11-13T10:20:33;2.55;;;1.30;;
47329;SDS011;33060;50.178;7.570;2022-11-13T10:23:24;2.75;;;1.30;;
47329;SDS011;33060;50.178;7.570;2022-11-13T10:29:12;1.63;;;1.27;;
47329;SDS011;33060;50.178;7.570;2022-11-13T10:32:12;2.53;;;1.30;;
47329;SDS011;33060;50.178;7.570;2022-11-13T10:41:03;1.80;;;1.25;;
47329;SDS011;33060;50.178;7.570;2022-11-13T10:43:59;2.60;;;1.20;;
47329;SDS011;33060;50.178;7.570;2022-11-13T10:46:50;1.75;;;1.10;;
47329;SDS011;33060;50.178;7.570;2022-11-13T10:49:35;1.67;;;1.40;;
47329;SDS011;33060;50.178;7.570;2022-11-13T10:52:22;2.22;;;1.23;;
47329;SDS011;33060;50.178;7.570;2022-11-13T10:58:18;2.00;;;1.40;;
47329;SDS011;33060;50.178;7.570;2022-11-13T11:01:14;1.73;;;1.38;;
47329;SDS011;33060;50.178;7.570;2022-11-13T11:04:09;1.88;;;1.50;;
47329;SDS011;33060;50.178;7.570;2022-11-13T11:07:02;1.92;;;1.30;;
47329;SDS011;33060;50.178;7.570;2022-11-13T11:13:19;1.88;;;1.35;;
47329;SDS011;33060;50.178;7.570;2022-11-13T11:16:06;3.03;;;1.70;;
47329;SDS011;33060;50.178;7.570;2022-11-13T11:18:59;1.77;;;1.30;;
47329;SDS011;33060;50.178;7.570;2022-11-13T11:21:47;1.90;;;1.40;;
47329;SDS011;33060;50.178;7.570;2022-11-13T11:24:35;1.52;;;1.20;;
47329;SDS011;33060;50.178;7.570;2022-11-13T11:27:40;2.75;;;1.40;;
47329;SDS011;33060;50.178;7.570;2022-11-13T11:30:35;1.75;;;1.10;;
47329;SDS011;33060;50.178;7.570;2022-11-13T11:33:29;1.70;;;1.25;;
47329;SDS011;33060;50.178;7.570;2022-11-13T11:42:08;2.25;;;1.33;;
47329;SDS011;33060;50.178;7.570;2022-11-13T11:45:22;1.98;;;1.20;;
47329;SDS011;33060;50.178;7.570;2022-11-13T11:48:17;1.67;;;1.27;;
47329;SDS011;33060;50.178;7.570;2022-11-13T11:51:24;1.60;;;1.23;;
47329;SDS011;33060;50.178;7.570;2022-11-13T12:00:20;1.75;;;1.23;;
47329;SDS011;33060;50.178;7.570;2022-11-13T12:15:08;2.25;;;1.30;;
47329;SDS011;33060;50.178;7.570;2022-11-13T12:18:12;2.20;;;1.40;;
47329;SDS011;33060;50.178;7.570;2022-11-13T12:33:40;1.50;;;1.25;;
47329;SDS011;33060;50.178;7.570;2022-11-13T12:36:45;1.88;;;1.30;;
47329;SDS011;33060;50.178;7.570;2022-11-13T12:51:35;1.88;;;1.58;;
47329;SDS011;33060;50.178;7.570;2022-11-13T13:00:22;2.75;;;1.77;;
47329;SDS011;33060;50.178;7.570;2022-11-13T13:03:17;2.15;;;1.60;;
47329;SDS011;33060;50.178;7.570;2022-11-13T13:12:42;2.00;;;1.50;;
47329;SDS011;33060;50.178;7.570;2022-11-13T13:15:52;1.90;;;1.40;;
47329;SDS011;33060;50.178;7.570;2022-11-13T13:18:41;2.58;;;1.48;;
47329;SDS011;33060;50.178;7.570;2022-11-13T13:21:27;3.10;;;1.85;;
47329;SDS011;33060;50.178;7.570;2022-11-13T13:24:29;2.30;;;1.63;;
47329;SDS011;33060;50.178;7.570;2022-11-13T13:27:24;2.13;;;1.55;;
47329;SDS011;33060;50.178;7.570;2022-11-13T13:30:19;1.60;;;1.50;;
47329;SDS011;33060;50.178;7.570;2022-11-13T13:48:38;2.75;;;1.63;;
47329;SDS011;33060;50.178;7.570;2022-11-13T13:51:30;2.05;;;1.65;;
47329;SDS011;33060;50.178;7.570;2022-11-13T13:54:28;2.13;;;1.70;;
47329;SDS011;33060;50.178;7.570;2022-11-13T13:57:16;2.95;;;1.67;;
47329;SDS011;33060;50.178;7.570;2022-11-13T14:00:02;2.97;;;2.10;;
47329;SDS011;33060;50.178;7.570;2022-11-13T14:02:49;2.28;;;1.63;;
47329;SDS011;33060;50.178;7.570;2022-11-13T14:05:36;2.30;;;1.75;;
47329;SDS011;33060;50.178;7.570;2022-11-13T14:08:22;1.85;;;1.50;;
47329;SDS011;33060;50.178;7.570;2022-11-13T14:11:17;2.97;;;1.60;;
47329;SDS011;33060;50.178;7.570;2022-11-13T14:14:15;2.55;;;1.80;;
47329;SDS011;33060;50.178;7.570;2022-11-13T14:17:03;2.33;;;1.70;;
47329;SDS011;33060;50.178;7.570;2022-11-13T14:19:50;2.78;;;1.70;;
47329;SDS011;33060;50.178;7.570;2022-11-13T14:22:37;2.25;;;1.88;;
47329;SDS011;33060;50.178;7.570;2022-11-13T14:25:25;2.40;;;1.63;;
47329;SDS011;33060;50.178;7.570;2022-11-13T14:28:17;1.83;;;1.40;;
47329;SDS011;33060;50.178;7.570;2022-11-13T14:31:06;2.47;;;1.60;;
47329;SDS011;33060;50.178;7.570;2022-11-13T14:33:53;2.30;;;1.70;;
47329;SDS011;33060;50.178;7.570;2022-11-13T14:36:39;2.55;;;1.60;;
47329;SDS011;33060;50.178;7.570;2022-11-13T14:39:26;1.95;;;1.42;;
47329;SDS011;33060;50.178;7.570;2022-11-13T14:42:18;2.08;;;1.70;;
47329;SDS011;33060;50.178;7.570;2022-11-13T14:45:17;2.70;;;1.60;;
47329;SDS011;33060;50.178;7.570;2022-11-13T14:48:23;2.60;;;1.70;;
47329;SDS011;33060;50.178;7.570;2022-11-13T14:51:21;2.35;;;1.92;;
47329;SDS011;33060;50.178;7.570;2022-11-13T14:54:31;2.10;;;1.70;;
47329;SDS011;33060;50.178;7.570;2022-11-13T14:57:46;2.75;;;1.70;;
47329;SDS011;33060;50.178;7.570;2022-11-13T15:00:36;1.75;;;1.58;;
47329;SDS011;33060;50.178;7.570;2022-11-13T15:03:22;2.75;;;1.73;;
47329;SDS011;33060;50.178;7.570;2022-11-13T15:06:13;2.67;;;1.80;;
47329;SDS011;33060;50.178;7.570;2022-11-13T15:08:58;2.13;;;1.60;;
47329;SDS011;33060;50.178;7.570;2022-11-13T15:11:44;2.25;;;1.60;;
47329;SDS011;33060;50.178;7.570;2022-11-13T15:14:30;2.10;;;1.60;;
47329;SDS011;33060;50.178;7.570;2022-11-13T15:17:17;2.55;;;1.60;;
47329;SDS011;33060;50.178;7.570;2022-11-13T15:20:04;2.25;;;1.70;;
47329;SDS011;33060;50.178;7.570;2022-11-13T15:22:54;1.85;;;1.60;;
47329;SDS011;33060;50.178;7.570;2022-11-13T15:25:40;2.35;;;1.60;;
47329;SDS011;33060;50.178;7.570;2022-11-13T15:28:26;1.90;;;1.58;;
47329;SDS011;33060;50.178;7.570;2022-11-13T15:31:31;2.03;;;1.50;;
47329;SDS011;33060;50.178;7.570;2022-11-13T15:34:18;3.30;;;1.73;;
47329;SDS011;33060;50.178;7.570;2022-11-13T15:37:10;2.35;;;1.83;;
47329;SDS011;33060;50.178;7.570;2022-11-13T15:39:56;2.22;;;1.60;;
47329;SDS011;33060;50.178;7.570;2022-11-13T15:42:42;2.35;;;1.90;;
47329;SDS011;33060;50.178;7.570;2022-11-13T15:45:27;1.88;;;1.40;;
47329;SDS011;33060;50.178;7.570;2022-11-13T15:48:13;2.20;;;1.70;;
47329;SDS011;33060;50.178;7.570;2022-11-13T15:50:58;4.50;;;2.00;;
47329;SDS011;33060;50.178;7.570;2022-11-13T15:53:44;2.90;;;1.80;;
47329;SDS011;33060;50.178;7.570;2022-11-13T15:56:32;2.35;;;1.75;;
47329;SDS011;33060;50.178;7.570;2022-11-13T15:59:17;3.28;;;1.92;;
47329;SDS011;33060;50.178;7.570;2022-11-13T16:02:02;2.55;;;1.77;;
47329;SDS011;33060;50.178;7.570;2022-11-13T16:04:47;2.03;;;1.50;;
47329;SDS011;33060;50.178;7.570;2022-11-13T16:07:40;2.03;;;1.70;;
47329;SDS011;33060;50.178;7.570;2022-11-13T16:10:26;5.17;;;2.03;;
47329;SDS011;33060;50.178;7.570;2022-11-13T16:13:11;2.00;;;1.67;;
47329;SDS011;33060;50.178;7.570;2022-11-13T16:15:57;2.10;;;1.73;;
47329;SDS011;33060;50.178;7.570;2022-11-13T16:18:43;2.90;;;1.73;;
47329;SDS011;33060;50.178;7.570;2022-11-13T16:21:28;2.90;;;2.07;;
47329;SDS011;33060;50.178;7.570;2022-11-13T16:24:14;3.50;;;2.30;;
47329;SDS011;33060;50.178;7.570;2022-11-13T16:27:03;3.47;;;2.50;;
47329;SDS011;33060;50.178;7.570;2022-11-13T16:29:48;2.70;;;2.00;;
47329;SDS011;33060;50.178;7.570;2022-11-13T16:32:34;2.10;;;1.83;;
47329;SDS011;33060;50.178;7.570;2022-11-13T16:35:19;2.50;;;2.00;;
47329;SDS011;33060;50.178;7.570;2022-11-13T16:38:08;2.60;;;2.20;;
47329;SDS011;33060;50.178;7.570;2022-11-13T16:40:55;2.63;;;2.20;;
47329;SDS011;33060;50.178;7.570;2022-11-13T16:43:41;3.00;;;2.70;;
47329;SDS011;33060;50.178;7.570;2022-11-13T16:46:28;3.73;;;2.77;;
47329;SDS011;33060;50.178;7.570;2022-11-13T16:49:15;2.63;;;2.20;;
47329;SDS011;33060;50.178;7.570;2022-11-13T16:52:03;2.67;;;2.30;;
47329;SDS011;33060;50.178;7.570;2022-11-13T16:54:48;2.47;;;2.00;;
47329;SDS011;33060;50.178;7.570;2022-11-13T16:57:35;3.93;;;2.73;;
47329;SDS011;33060;50.178;7.570;2022-11-13T17:00:20;3.17;;;2.40;;
47329;SDS011;33060;50.178;7.570;2022-11-13T17:03:05;2.83;;;2.23;;
47329;SDS011;33060;50.178;7.570;2022-11-13T17:05:51;2.50;;;2.30;;
47329;SDS011;33060;50.178;7.570;2022-11-13T17:08:36;4.13;;;2.50;;
47329;SDS011;33060;50.178;7.570;2022-11-13T17:11:23;3.73;;;3.17;;
47329;SDS011;33060;50.178;7.570;2022-11-13T17:14:10;3.67;;;2.90;;
47329;SDS011;33060;50.178;7.570;2022-11-13T17:16:55;2.97;;;2.57;;
47329;SDS011;33060;50.178;7.570;2022-11-13T17:19:41;4.60;;;3.00;;
47329;SDS011;33060;50.178;7.570;2022-11-13T17:22:28;5.23;;;3.43;;
47329;SDS011;33060;50.178;7.570;2022-11-13T17:25:14;4.33;;;2.90;;
47329;SDS011;33060;50.178;7.570;2022-11-13T17:28:00;3.63;;;3.30;;
47329;SDS011;33060;50.178;7.570;2022-11-13T17:30:45;5.70;;;3.50;;
47329;SDS011;33060;50.178;7.570;2022-11-13T17:33:30;4.90;;;4.00;;
47329;SDS011;33060;50.178;7.570;2022-11-13T17:36:16;6.03;;;4.83;;
47329;SDS011;33060;50.178;7.570;2022-11-13T17:39:01;9.20;;;6.00;;
47329;SDS011;33060;50.178;7.570;2022-11-13T17:41:48;21.23;;;16.87;;
47329;SDS011;33060;50.178;7.570;2022-11-13T17:44:34;30.40;;;23.50;;
47329;SDS011;33060;50.178;7.570;2022-11-13T17:47:19;35.93;;;29.93;;
47329;SDS011;33060;50.178;7.570;2022-11-13T17:50:05;32.63;;;25.53;;
47329;SDS011;33060;50.178;7.570;2022-11-13T17:52:51;31.00;;;24.67;;
47329;SDS011;33060;50.178;7.570;2022-11-13T17:55:36;23.67;;;19.13;;
47329;SDS011;33060;50.178;7.570;2022-11-13T17:58:22;12.40;;;9.80;;
47329;SDS011;33060;50.178;7.570;2022-11-13T18:01:12;9.57;;;7.67;;
47329;SDS011;33060;50.178;7.570;2022-11-13T18:03:59;6.20;;;5.40;;
47329;SDS011;33060;50.178;7.570;2022-11-13T18:06:44;2.60;;;2.00;;
47329;SDS011;33060;50.178;7.570;2022-11-13T18:09:30;3.20;;;2.53;;
47329;SDS011;33060;50.178;7.570;2022-11-13T18:12:15;2.30;;;1.70;;
47329;SDS011;33060;50.178;7.570;2022-11-13T18:15:01;2.47;;;1.83;;
47329;SDS011;33060;50.178;7.570;2022-11-13T18:17:46;4.50;;;3.40;;
47329;SDS011;33060;50.178;7.570;2022-11-13T18:20:37;20.83;;;15.03;;
47329;SDS011;33060;50.178;7.570;2022-11-13T18:23:23;10.23;;;7.00;;
47329;SDS011;33060;50.178;7.570;2022-11-13T18:26:09;15.83;;;12.07;;
47329;SDS011;33060;50.178;7.570;2022-11-13T18:28:57;4.40;;;3.40;;
47329;SDS011;33060;50.178;7.570;2022-11-13T18:31:43;2.73;;;2.00;;
47329;SDS011;33060;50.178;7.570;2022-11-13T18:34:28;2.83;;;2.00;;
47329;SDS011;33060;50.178;7.570;2022-11-13T18:37:14;2.40;;;1.63;;
47329;SDS011;33060;50.178;7.570;2022-11-13T18:39:59;2.53;;;1.53;;
47329;SDS011;33060;50.178;7.570;2022-11-13T18:42:45;3.60;;;1.80;;